sensor_id;sensor_type;location;lat;lon;timestamp;P1;durP1;ratioP1;P2;durP2;ratioP2
76788;SDS011;65740;52.464;13.446;2022-12-29T00:02:08;8.33;;;7.10;;
76788;SDS011;65740;52.464;13.446;2022-12-29T00:04:34;7.43;;;6.20;;
76788;SDS011;65740;52.464;13.446;2022-12-29T00:07:00;7.37;;;6.67;;
76788;SDS011;65740;52.464;13.446;2022-12-29T00:09:26;9.20;;;7.20;;
76788;SDS011;65740;52.464;13.446;2022-12-29T00:11:52;7.40;;;6.63;;
76788;SDS011;65740;52.464;13.446;2022-12-29T00:14:18;7.70;;;6.90;;
76788;SDS011;65740;52.464;13.446;2022-12-29T00:17:02;8.57;;;7.43;;
76788;SDS011;65740;52.464;13.446;2022-12-29T00:19:28;9.60;;;7.00;;
76788;SDS011;65740;52.464;13.446;2022-12-29T00:22:13;7.73;;;6.20;;
76788;SDS011;65740;52.464;13.446;2022-12-29T00:24:57;7.37;;;6.57;;
76788;SDS011;65740;52.464;13.446;2022-12-29T00:27:30;6.93;;;6.20;;
76788;SDS011;65740;52.464;13.446;2022-12-29T00:30:16;8.27;;;6.60;;
76788;SDS011;65740;52.464;13.446;2022-12-29T00:33:35;9.27;;;6.70;;
76788;SDS011;65740;52.464;13.446;2022-12-29T00:39:12;7.57;;;6.67;;
76788;SDS011;65740;52.464;13.446;2022-12-29T00:42:04;6.90;;;6.00;;
76788;SDS011;65740;52.464;13.446;2022-12-29T00:45:02;9.77;;;7.30;;
76788;SDS011;65740;52.464;13.446;2022-12-29T00:47:28;7.13;;;6.40;;
76788;SDS011;65740;52.464;13.446;2022-12-29T00:49:53;7.80;;;6.53;;
76788;SDS011;65740;52.464;13.446;2022-12-29T00:52:19;7.07;;;6.10;;
76788;SDS011;65740;52.464;13.446;2022-12-29T00:54:45;6.93;;;6.00;;
76788;SDS011;65740;52.464;13.446;2022-12-29T00:57:10;7.60;;;6.80;;
76788;SDS011;65740;52.464;13.446;2022-12-29T00:59:40;8.17;;;6.83;;
76788;SDS011;65740;52.464;13.446;2022-12-29T01:02:07;6.80;;;6.10;;
76788;SDS011;65740;52.464;13.446;2022-12-29T01:04:34;7.67;;;6.40;;
76788;SDS011;65740;52.464;13.446;2022-12-29T01:07:00;6.67;;;5.97;;
76788;SDS011;65740;52.464;13.446;2022-12-29T01:09:25;6.83;;;6.17;;
76788;SDS011;65740;52.464;13.446;2022-12-29T01:12:09;9.43;;;6.47;;
76788;SDS011;65740;52.464;13.446;2022-12-29T01:14:35;11.40;;;7.20;;
76788;SDS011;65740;52.464;13.446;2022-12-29T01:17:01;6.67;;;6.07;;
76788;SDS011;65740;52.464;13.446;2022-12-29T01:19:27;7.10;;;5.97;;
76788;SDS011;65740;52.464;13.446;2022-12-29T01:21:52;7.27;;;6.57;;
76788;SDS011;65740;52.464;13.446;2022-12-29T01:24:18;6.60;;;5.43;;
76788;SDS011;65740;52.464;13.446;2022-12-29T01:26:45;6.10;;;5.47;;
76788;SDS011;65740;52.464;13.446;2022-12-29T01:29:11;6.77;;;6.00;;
76788;SDS011;65740;52.464;13.446;2022-12-29T01:31:37;6.67;;;6.07;;
76788;SDS011;65740;52.464;13.446;2022-12-29T01:34:03;6.57;;;5.87;;
76788;SDS011;65740;52.464;13.446;2022-12-29T01:36:29;7.03;;;5.90;;
76788;SDS011;65740;52.464;13.446;2022-12-29T01:38:55;7.10;;;5.67;;
76788;SDS011;65740;52.464;13.446;2022-12-29T01:41:21;6.17;;;5.53;;
76788;SDS011;65740;52.464;13.446;2022-12-29T01:43:48;6.67;;;5.97;;
76788;SDS011;65740;52.464;13.446;2022-12-29T01:52:02;7.23;;;5.83;;
76788;SDS011;65740;52.464;13.446;2022-12-29T01:54:34;7.73;;;6.10;;
76788;SDS011;65740;52.464;13.446;2022-12-29T01:57:07;6.70;;;5.77;;
76788;SDS011;65740;52.464;13.446;2022-12-29T01:59:36;6.40;;;5.80;;
76788;SDS011;65740;52.464;13.446;2022-12-29T02:02:07;6.20;;;5.60;;
76788;SDS011;65740;52.464;13.446;2022-12-29T02:04:33;7.67;;;5.87;;
76788;SDS011;65740;52.464;13.446;2022-12-29T02:07:00;6.73;;;5.63;;
76788;SDS011;65740;52.464;13.446;2022-12-29T02:09:29;6.10;;;5.37;;
76788;SDS011;65740;52.464;13.446;2022-12-29T02:11:55;6.00;;;5.40;;
76788;SDS011;65740;52.464;13.446;2022-12-29T02:14:22;9.87;;;6.07;;
76788;SDS011;65740;52.464;13.446;2022-12-29T02:38:42;6.43;;;5.80;;
76788;SDS011;65740;52.464;13.446;2022-12-29T02:41:19;5.53;;;4.90;;
76788;SDS011;65740;52.464;13.446;2022-12-29T02:46:41;5.07;;;4.57;;
76788;SDS011;65740;52.464;13.446;2022-12-29T02:52:00;4.17;;;3.77;;
76788;SDS011;65740;52.464;13.446;2022-12-29T02:54:29;6.00;;;5.33;;
76788;SDS011;65740;52.464;13.446;2022-12-29T02:57:28;4.80;;;4.30;;
76788;SDS011;65740;52.464;13.446;2022-12-29T02:59:58;5.30;;;4.80;;
76788;SDS011;65740;52.464;13.446;2022-12-29T03:02:29;5.20;;;4.70;;
76788;SDS011;65740;52.464;13.446;2022-12-29T03:10:54;6.97;;;5.23;;
76788;SDS011;65740;52.464;13.446;2022-12-29T03:13:44;4.97;;;4.50;;
76788;SDS011;65740;52.464;13.446;2022-12-29T03:16:44;4.87;;;4.37;;
76788;SDS011;65740;52.464;13.446;2022-12-29T03:24:48;5.43;;;4.93;;
76788;SDS011;65740;52.464;13.446;2022-12-29T03:27:19;4.80;;;4.40;;
76788;SDS011;65740;52.464;13.446;2022-12-29T03:29:50;4.63;;;4.23;;
76788;SDS011;65740;52.464;13.446;2022-12-29T03:32:22;4.77;;;4.30;;
76788;SDS011;65740;52.464;13.446;2022-12-29T03:34:53;5.30;;;4.30;;
76788;SDS011;65740;52.464;13.446;2022-12-29T03:37:23;6.07;;;4.33;;
76788;SDS011;65740;52.464;13.446;2022-12-29T03:39:55;5.17;;;4.67;;
76788;SDS011;65740;52.464;13.446;2022-12-29T03:42:22;4.43;;;4.03;;
76788;SDS011;65740;52.464;13.446;2022-12-29T03:44:53;4.13;;;3.77;;
76788;SDS011;65740;52.464;13.446;2022-12-29T03:47:23;5.30;;;4.80;;
76788;SDS011;65740;52.464;13.446;2022-12-29T03:49:50;4.23;;;3.83;;
76788;SDS011;65740;52.464;13.446;2022-12-29T03:52:16;4.67;;;4.20;;
76788;SDS011;65740;52.464;13.446;2022-12-29T03:54:42;4.90;;;4.10;;
76788;SDS011;65740;52.464;13.446;2022-12-29T03:57:08;5.27;;;4.70;;
76788;SDS011;65740;52.464;13.446;2022-12-29T03:59:35;4.97;;;4.00;;
76788;SDS011;65740;52.464;13.446;2022-12-29T04:02:00;4.30;;;3.90;;
76788;SDS011;65740;52.464;13.446;2022-12-29T04:04:26;4.03;;;3.63;;
76788;SDS011;65740;52.464;13.446;2022-12-29T04:06:52;4.37;;;3.90;;
76788;SDS011;65740;52.464;13.446;2022-12-29T04:09:17;4.50;;;4.10;;
76788;SDS011;65740;52.464;13.446;2022-12-29T04:11:43;4.27;;;3.83;;
76788;SDS011;65740;52.464;13.446;2022-12-29T04:14:08;4.00;;;3.60;;
76788;SDS011;65740;52.464;13.446;2022-12-29T04:16:34;4.37;;;3.97;;
76788;SDS011;65740;52.464;13.446;2022-12-29T04:19:04;4.07;;;3.43;;
76788;SDS011;65740;52.464;13.446;2022-12-29T04:21:30;4.90;;;4.20;;
76788;SDS011;65740;52.464;13.446;2022-12-29T04:23:56;6.03;;;4.40;;
76788;SDS011;65740;52.464;13.446;2022-12-29T04:26:21;4.20;;;3.80;;
76788;SDS011;65740;52.464;13.446;2022-12-29T04:28:47;3.83;;;3.40;;
76788;SDS011;65740;52.464;13.446;2022-12-29T04:31:12;4.20;;;3.80;;
76788;SDS011;65740;52.464;13.446;2022-12-29T04:33:38;4.13;;;3.77;;
76788;SDS011;65740;52.464;13.446;2022-12-29T04:36:04;4.17;;;3.77;;
76788;SDS011;65740;52.464;13.446;2022-12-29T04:38:29;4.50;;;4.10;;
76788;SDS011;65740;52.464;13.446;2022-12-29T04:40:55;3.83;;;3.47;;
76788;SDS011;65740;52.464;13.446;2022-12-29T04:43:24;3.83;;;3.50;;
76788;SDS011;65740;52.464;13.446;2022-12-29T04:45:49;4.07;;;3.70;;
76788;SDS011;65740;52.464;13.446;2022-12-29T04:48:15;3.40;;;3.10;;
76788;SDS011;65740;52.464;13.446;2022-12-29T04:50:41;3.17;;;2.97;;
76788;SDS011;65740;52.464;13.446;2022-12-29T04:53:07;3.83;;;3.53;;
76788;SDS011;65740;52.464;13.446;2022-12-29T04:55:33;4.07;;;3.47;;
76788;SDS011;65740;52.464;13.446;2022-12-29T04:57:59;4.40;;;4.00;;
76788;SDS011;65740;52.464;13.446;2022-12-29T05:00:24;3.40;;;3.10;;
76788;SDS011;65740;52.464;13.446;2022-12-29T05:02:50;3.73;;;3.43;;
76788;SDS011;65740;52.464;13.446;2022-12-29T05:05:16;3.90;;;3.53;;
76788;SDS011;65740;52.464;13.446;2022-12-29T05:07:42;4.60;;;3.73;;
76788;SDS011;65740;52.464;13.446;2022-12-29T05:10:08;4.37;;;3.97;;
76788;SDS011;65740;52.464;13.446;2022-12-29T05:12:34;3.83;;;3.53;;
76788;SDS011;65740;52.464;13.446;2022-12-29T05:15:01;3.90;;;3.57;;
76788;SDS011;65740;52.464;13.446;2022-12-29T05:17:28;5.00;;;4.10;;
76788;SDS011;65740;52.464;13.446;2022-12-29T05:19:54;3.63;;;2.97;;
76788;SDS011;65740;52.464;13.446;2022-12-29T05:22:20;3.37;;;3.10;;
76788;SDS011;65740;52.464;13.446;2022-12-29T05:24:45;3.50;;;3.20;;
76788;SDS011;65740;52.464;13.446;2022-12-29T05:27:11;3.73;;;3.43;;
76788;SDS011;65740;52.464;13.446;2022-12-29T05:29:37;3.93;;;3.63;;
76788;SDS011;65740;52.464;13.446;2022-12-29T05:32:02;3.70;;;3.40;;
76788;SDS011;65740;52.464;13.446;2022-12-29T05:34:28;4.33;;;3.30;;
76788;SDS011;65740;52.464;13.446;2022-12-29T05:36:54;3.30;;;3.00;;
76788;SDS011;65740;52.464;13.446;2022-12-29T05:39:19;3.60;;;3.07;;
76788;SDS011;65740;52.464;13.446;2022-12-29T05:41:45;3.50;;;3.20;;
76788;SDS011;65740;52.464;13.446;2022-12-29T05:44:10;3.77;;;3.37;;
76788;SDS011;65740;52.464;13.446;2022-12-29T05:46:36;2.97;;;2.77;;
76788;SDS011;65740;52.464;13.446;2022-12-29T05:49:02;3.60;;;3.23;;
76788;SDS011;65740;52.464;13.446;2022-12-29T05:51:28;4.83;;;3.10;;
76788;SDS011;65740;52.464;13.446;2022-12-29T05:53:54;3.50;;;3.20;;
76788;SDS011;65740;52.464;13.446;2022-12-29T05:56:19;2.97;;;2.77;;
76788;SDS011;65740;52.464;13.446;2022-12-29T05:58:45;3.83;;;3.53;;
76788;SDS011;65740;52.464;13.446;2022-12-29T06:01:11;3.40;;;3.10;;
76788;SDS011;65740;52.464;13.446;2022-12-29T06:03:36;3.60;;;3.30;;
76788;SDS011;65740;52.464;13.446;2022-12-29T06:06:02;3.40;;;2.97;;
76788;SDS011;65740;52.464;13.446;2022-12-29T06:08:28;3.27;;;2.93;;
76788;SDS011;65740;52.464;13.446;2022-12-29T06:10:53;3.00;;;2.80;;
76788;SDS011;65740;52.464;13.446;2022-12-29T06:13:19;3.10;;;2.67;;
76788;SDS011;65740;52.464;13.446;2022-12-29T06:15:45;2.90;;;2.70;;
76788;SDS011;65740;52.464;13.446;2022-12-29T06:18:13;2.97;;;2.77;;
76788;SDS011;65740;52.464;13.446;2022-12-29T06:20:39;3.70;;;3.00;;
76788;SDS011;65740;52.464;13.446;2022-12-29T06:23:05;2.90;;;2.70;;
76788;SDS011;65740;52.464;13.446;2022-12-29T06:25:30;3.03;;;2.80;;
76788;SDS011;65740;52.464;13.446;2022-12-29T06:27:58;3.20;;;2.90;;
76788;SDS011;65740;52.464;13.446;2022-12-29T06:30:24;2.67;;;2.47;;
76788;SDS011;65740;52.464;13.446;2022-12-29T06:32:49;2.70;;;2.50;;
76788;SDS011;65740;52.464;13.446;2022-12-29T06:35:16;2.87;;;2.67;;
76788;SDS011;65740;52.464;13.446;2022-12-29T06:37:41;2.93;;;2.73;;
76788;SDS011;65740;52.464;13.446;2022-12-29T06:40:08;3.60;;;3.30;;
76788;SDS011;65740;52.464;13.446;2022-12-29T06:42:34;3.20;;;2.90;;
76788;SDS011;65740;52.464;13.446;2022-12-29T06:45:00;3.20;;;2.47;;
76788;SDS011;65740;52.464;13.446;2022-12-29T06:47:26;3.00;;;2.80;;
76788;SDS011;65740;52.464;13.446;2022-12-29T06:49:51;3.43;;;2.80;;
76788;SDS011;65740;52.464;13.446;2022-12-29T06:52:17;2.70;;;2.50;;
76788;SDS011;65740;52.464;13.446;2022-12-29T06:54:43;3.00;;;2.73;;
76788;SDS011;65740;52.464;13.446;2022-12-29T06:57:08;3.17;;;2.87;;
76788;SDS011;65740;52.464;13.446;2022-12-29T06:59:34;4.00;;;2.70;;
76788;SDS011;65740;52.464;13.446;2022-12-29T07:01:59;5.73;;;2.87;;
76788;SDS011;65740;52.464;13.446;2022-12-29T07:04:26;2.97;;;2.53;;
76788;SDS011;65740;52.464;13.446;2022-12-29T07:06:52;3.10;;;2.80;;
76788;SDS011;65740;52.464;13.446;2022-12-29T07:09:18;3.30;;;2.40;;
76788;SDS011;65740;52.464;13.446;2022-12-29T07:11:44;2.53;;;2.33;;
76788;SDS011;65740;52.464;13.446;2022-12-29T07:14:10;2.60;;;2.40;;
76788;SDS011;65740;52.464;13.446;2022-12-29T07:16:36;2.67;;;2.47;;
76788;SDS011;65740;52.464;13.446;2022-12-29T07:19:02;2.90;;;2.63;;
76788;SDS011;65740;52.464;13.446;2022-12-29T07:21:28;2.60;;;2.40;;
76788;SDS011;65740;52.464;13.446;2022-12-29T07:23:53;2.90;;;2.70;;
76788;SDS011;65740;52.464;13.446;2022-12-29T07:26:19;3.07;;;2.87;;
76788;SDS011;65740;52.464;13.446;2022-12-29T07:28:45;3.37;;;3.10;;
76788;SDS011;65740;52.464;13.446;2022-12-29T07:31:15;2.77;;;2.57;;
76788;SDS011;65740;52.464;13.446;2022-12-29T07:33:42;2.70;;;2.50;;
76788;SDS011;65740;52.464;13.446;2022-12-29T07:36:09;2.87;;;2.67;;
76788;SDS011;65740;52.464;13.446;2022-12-29T07:38:35;2.73;;;2.53;;
76788;SDS011;65740;52.464;13.446;2022-12-29T07:41:00;2.67;;;2.47;;
76788;SDS011;65740;52.464;13.446;2022-12-29T07:43:26;2.87;;;2.67;;
76788;SDS011;65740;52.464;13.446;2022-12-29T07:45:52;2.67;;;2.47;;
76788;SDS011;65740;52.464;13.446;2022-12-29T07:48:18;2.70;;;2.50;;
76788;SDS011;65740;52.464;13.446;2022-12-29T07:50:44;2.40;;;2.20;;
76788;SDS011;65740;52.464;13.446;2022-12-29T07:53:09;2.20;;;2.00;;
76788;SDS011;65740;52.464;13.446;2022-12-29T07:55:35;2.70;;;2.50;;
76788;SDS011;65740;52.464;13.446;2022-12-29T07:58:01;3.10;;;2.60;;
76788;SDS011;65740;52.464;13.446;2022-12-29T08:00:26;2.37;;;2.17;;
76788;SDS011;65740;52.464;13.446;2022-12-29T08:02:52;2.90;;;2.63;;
76788;SDS011;65740;52.464;13.446;2022-12-29T08:05:17;2.50;;;2.30;;
76788;SDS011;65740;52.464;13.446;2022-12-29T08:07:43;2.50;;;1.83;;
76788;SDS011;65740;52.464;13.446;2022-12-29T08:10:10;3.20;;;2.37;;
76788;SDS011;65740;52.464;13.446;2022-12-29T08:12:40;2.70;;;2.50;;
76788;SDS011;65740;52.464;13.446;2022-12-29T08:15:07;2.10;;;1.90;;
76788;SDS011;65740;52.464;13.446;2022-12-29T08:17:33;2.40;;;2.20;;
76788;SDS011;65740;52.464;13.446;2022-12-29T08:19:59;2.50;;;2.30;;
76788;SDS011;65740;52.464;13.446;2022-12-29T08:22:25;2.43;;;2.23;;
76788;SDS011;65740;52.464;13.446;2022-12-29T08:24:51;2.40;;;2.20;;
76788;SDS011;65740;52.464;13.446;2022-12-29T08:27:16;2.43;;;2.23;;
76788;SDS011;65740;52.464;13.446;2022-12-29T08:29:42;2.70;;;2.40;;
76788;SDS011;65740;52.464;13.446;2022-12-29T08:32:08;2.30;;;2.10;;
76788;SDS011;65740;52.464;13.446;2022-12-29T08:34:33;2.63;;;2.17;;
76788;SDS011;65740;52.464;13.446;2022-12-29T08:36:59;2.67;;;2.47;;
76788;SDS011;65740;52.464;13.446;2022-12-29T08:39:24;2.03;;;1.87;;
76788;SDS011;65740;52.464;13.446;2022-12-29T08:41:50;1.83;;;1.73;;
76788;SDS011;65740;52.464;13.446;2022-12-29T08:44:16;2.20;;;2.00;;
76788;SDS011;65740;52.464;13.446;2022-12-29T08:46:42;2.20;;;2.10;;
76788;SDS011;65740;52.464;13.446;2022-12-29T08:49:07;2.00;;;1.90;;
76788;SDS011;65740;52.464;13.446;2022-12-29T08:51:33;2.00;;;1.90;;
76788;SDS011;65740;52.464;13.446;2022-12-29T08:53:59;2.03;;;1.90;;
76788;SDS011;65740;52.464;13.446;2022-12-29T08:56:25;2.00;;;1.90;;
76788;SDS011;65740;52.464;13.446;2022-12-29T08:58:51;2.00;;;1.90;;
76788;SDS011;65740;52.464;13.446;2022-12-29T09:01:18;2.27;;;2.07;;
76788;SDS011;65740;52.464;13.446;2022-12-29T09:03:45;2.40;;;2.20;;
76788;SDS011;65740;52.464;13.446;2022-12-29T09:06:11;2.33;;;2.13;;
76788;SDS011;65740;52.464;13.446;2022-12-29T09:08:37;2.07;;;1.97;;
76788;SDS011;65740;52.464;13.446;2022-12-29T09:11:10;2.10;;;2.00;;
76788;SDS011;65740;52.464;13.446;2022-12-29T09:13:43;3.23;;;2.50;;
76788;SDS011;65740;52.464;13.446;2022-12-29T09:16:09;2.67;;;2.47;;
76788;SDS011;65740;52.464;13.446;2022-12-29T09:18:35;2.10;;;2.00;;
76788;SDS011;65740;52.464;13.446;2022-12-29T09:21:01;1.90;;;1.80;;
76788;SDS011;65740;52.464;13.446;2022-12-29T09:23:29;2.53;;;2.33;;
76788;SDS011;65740;52.464;13.446;2022-12-29T09:25:55;2.33;;;2.13;;
76788;SDS011;65740;52.464;13.446;2022-12-29T09:28:22;2.47;;;2.20;;
76788;SDS011;65740;52.464;13.446;2022-12-29T09:30:47;1.80;;;1.70;;
76788;SDS011;65740;52.464;13.446;2022-12-29T09:33:13;1.80;;;1.70;;
76788;SDS011;65740;52.464;13.446;2022-12-29T09:35:42;2.50;;;2.30;;
76788;SDS011;65740;52.464;13.446;2022-12-29T09:38:09;2.10;;;1.90;;
76788;SDS011;65740;52.464;13.446;2022-12-29T09:40:35;2.40;;;2.20;;
76788;SDS011;65740;52.464;13.446;2022-12-29T09:43:15;2.23;;;2.00;;
76788;SDS011;65740;52.464;13.446;2022-12-29T09:45:55;1.80;;;1.70;;
76788;SDS011;65740;52.464;13.446;2022-12-29T09:48:30;2.13;;;1.93;;
76788;SDS011;65740;52.464;13.446;2022-12-29T09:51:00;2.03;;;1.93;;
76788;SDS011;65740;52.464;13.446;2022-12-29T09:53:32;2.10;;;1.90;;
76788;SDS011;65740;52.464;13.446;2022-12-29T09:56:04;2.20;;;2.00;;
76788;SDS011;65740;52.464;13.446;2022-12-29T09:58:39;1.97;;;1.80;;
76788;SDS011;65740;52.464;13.446;2022-12-29T10:01:23;2.07;;;1.87;;
76788;SDS011;65740;52.464;13.446;2022-12-29T10:03:57;1.97;;;1.87;;
76788;SDS011;65740;52.464;13.446;2022-12-29T10:21:52;2.20;;;2.00;;
76788;SDS011;65740;52.464;13.446;2022-12-29T10:24:24;2.33;;;2.13;;
76788;SDS011;65740;52.464;13.446;2022-12-29T10:26:51;2.33;;;2.13;;
76788;SDS011;65740;52.464;13.446;2022-12-29T10:29:20;2.03;;;1.87;;
76788;SDS011;65740;52.464;13.446;2022-12-29T10:31:50;1.97;;;1.87;;
76788;SDS011;65740;52.464;13.446;2022-12-29T10:34:31;3.77;;;2.00;;
76788;SDS011;65740;52.464;13.446;2022-12-29T10:37:03;2.20;;;2.10;;
76788;SDS011;65740;52.464;13.446;2022-12-29T10:39:51;2.07;;;1.97;;
76788;SDS011;65740;52.464;13.446;2022-12-29T10:44:58;1.77;;;1.67;;
76788;SDS011;65740;52.464;13.446;2022-12-29T10:47:25;1.70;;;1.60;;
76788;SDS011;65740;52.464;13.446;2022-12-29T10:49:54;2.23;;;2.03;;
76788;SDS011;65740;52.464;13.446;2022-12-29T10:52:23;1.90;;;1.80;;
76788;SDS011;65740;52.464;13.446;2022-12-29T10:55:02;1.80;;;1.70;;
76788;SDS011;65740;52.464;13.446;2022-12-29T10:57:33;2.17;;;2.03;;
76788;SDS011;65740;52.464;13.446;2022-12-29T11:00:23;1.90;;;1.80;;
76788;SDS011;65740;52.464;13.446;2022-12-29T11:03:35;2.30;;;2.10;;
76788;SDS011;65740;52.464;13.446;2022-12-29T11:05:56;2.80;;;1.80;;
76788;SDS011;65740;52.464;13.446;2022-12-29T11:08:30;2.07;;;1.97;;
76788;SDS011;65740;52.464;13.446;2022-12-29T11:11:04;1.90;;;1.80;;
76788;SDS011;65740;52.464;13.446;2022-12-29T11:13:34;2.00;;;1.90;;
76788;SDS011;65740;52.464;13.446;2022-12-29T11:16:11;2.20;;;1.90;;
76788;SDS011;65740;52.464;13.446;2022-12-29T11:18:37;1.63;;;1.53;;
76788;SDS011;65740;52.464;13.446;2022-12-29T11:23:56;1.83;;;1.60;;
76788;SDS011;65740;52.464;13.446;2022-12-29T11:26:23;1.60;;;1.50;;
76788;SDS011;65740;52.464;13.446;2022-12-29T11:31:43;1.80;;;1.70;;
76788;SDS011;65740;52.464;13.446;2022-12-29T11:34:44;2.50;;;1.83;;
76788;SDS011;65740;52.464;13.446;2022-12-29T11:37:09;2.00;;;1.90;;
76788;SDS011;65740;52.464;13.446;2022-12-29T11:42:03;1.67;;;1.57;;
76788;SDS011;65740;52.464;13.446;2022-12-29T11:44:35;1.73;;;1.63;;
76788;SDS011;65740;52.464;13.446;2022-12-29T11:47:06;1.47;;;1.37;;
76788;SDS011;65740;52.464;13.446;2022-12-29T11:49:37;2.20;;;2.00;;
76788;SDS011;65740;52.464;13.446;2022-12-29T11:52:03;1.93;;;1.70;;
76788;SDS011;65740;52.464;13.446;2022-12-29T11:54:30;2.10;;;2.00;;
76788;SDS011;65740;52.464;13.446;2022-12-29T11:57:08;2.03;;;1.60;;
76788;SDS011;65740;52.464;13.446;2022-12-29T11:59:40;2.10;;;1.90;;
76788;SDS011;65740;52.464;13.446;2022-12-29T12:02:35;1.80;;;1.70;;
76788;SDS011;65740;52.464;13.446;2022-12-29T12:05:08;1.60;;;1.50;;
76788;SDS011;65740;52.464;13.446;2022-12-29T12:10:50;1.90;;;1.80;;
76788;SDS011;65740;52.464;13.446;2022-12-29T12:13:27;1.67;;;1.57;;
76788;SDS011;65740;52.464;13.446;2022-12-29T12:21:20;1.90;;;1.80;;
76788;SDS011;65740;52.464;13.446;2022-12-29T12:29:38;1.93;;;1.43;;
76788;SDS011;65740;52.464;13.446;2022-12-29T12:34:45;3.20;;;2.00;;
76788;SDS011;65740;52.464;13.446;2022-12-29T12:37:19;2.20;;;2.00;;
76788;SDS011;65740;52.464;13.446;2022-12-29T12:40:26;1.77;;;1.67;;
76788;SDS011;65740;52.464;13.446;2022-12-29T12:48:19;1.90;;;1.80;;
76788;SDS011;65740;52.464;13.446;2022-12-29T12:50:52;2.17;;;1.80;;
76788;SDS011;65740;52.464;13.446;2022-12-29T12:53:45;1.50;;;1.40;;
76788;SDS011;65740;52.464;13.446;2022-12-29T13:01:41;2.50;;;1.73;;
76788;SDS011;65740;52.464;13.446;2022-12-29T13:04:25;1.80;;;1.60;;
76788;SDS011;65740;52.464;13.446;2022-12-29T13:12:18;1.63;;;1.50;;
76788;SDS011;65740;52.464;13.446;2022-12-29T13:14:51;3.80;;;1.73;;
76788;SDS011;65740;52.464;13.446;2022-12-29T13:17:45;1.57;;;1.40;;
76788;SDS011;65740;52.464;13.446;2022-12-29T13:20:25;2.90;;;1.67;;
76788;SDS011;65740;52.464;13.446;2022-12-29T13:28:40;1.97;;;1.57;;
76788;SDS011;65740;52.464;13.446;2022-12-29T13:31:13;1.77;;;1.67;;
76788;SDS011;65740;52.464;13.446;2022-12-29T13:33:51;4.00;;;1.90;;
76788;SDS011;65740;52.464;13.446;2022-12-29T13:39:26;3.57;;;1.63;;
76788;SDS011;65740;52.464;13.446;2022-12-29T13:41:57;2.20;;;1.60;;
76788;SDS011;65740;52.464;13.446;2022-12-29T13:44:25;1.87;;;1.67;;
76788;SDS011;65740;52.464;13.446;2022-12-29T13:47:04;2.83;;;1.60;;
76788;SDS011;65740;52.464;13.446;2022-12-29T13:49:46;2.13;;;1.93;;
76788;SDS011;65740;52.464;13.446;2022-12-29T13:57:51;2.30;;;1.67;;
76788;SDS011;65740;52.464;13.446;2022-12-29T14:00:22;1.77;;;1.40;;
76788;SDS011;65740;52.464;13.446;2022-12-29T14:08:48;2.87;;;1.83;;
76788;SDS011;65740;52.464;13.446;2022-12-29T14:11:16;3.80;;;2.10;;
76788;SDS011;65740;52.464;13.446;2022-12-29T14:13:45;3.13;;;1.97;;
76788;SDS011;65740;52.464;13.446;2022-12-29T14:16:25;5.47;;;1.50;;
76788;SDS011;65740;52.464;13.446;2022-12-29T14:19:21;2.33;;;1.60;;
76788;SDS011;65740;52.464;13.446;2022-12-29T14:21:58;3.07;;;1.90;;
76788;SDS011;65740;52.464;13.446;2022-12-29T14:33:10;2.67;;;2.10;;
76788;SDS011;65740;52.464;13.446;2022-12-29T14:38:15;2.77;;;2.10;;
76788;SDS011;65740;52.464;13.446;2022-12-29T14:40:43;3.80;;;2.10;;
76788;SDS011;65740;52.464;13.446;2022-12-29T14:43:19;7.20;;;2.47;;
76788;SDS011;65740;52.464;13.446;2022-12-29T14:45:52;3.30;;;2.40;;
76788;SDS011;65740;52.464;13.446;2022-12-29T14:48:30;3.10;;;2.40;;
76788;SDS011;65740;52.464;13.446;2022-12-29T14:50:57;5.47;;;2.03;;
76788;SDS011;65740;52.464;13.446;2022-12-29T14:56:09;3.33;;;1.90;;
76788;SDS011;65740;52.464;13.446;2022-12-29T15:04:15;2.40;;;2.13;;
76788;SDS011;65740;52.464;13.446;2022-12-29T15:06:44;3.00;;;2.20;;
76788;SDS011;65740;52.464;13.446;2022-12-29T15:11:49;6.27;;;2.50;;
76788;SDS011;65740;52.464;13.446;2022-12-29T15:14:28;5.70;;;2.13;;
76788;SDS011;65740;52.464;13.446;2022-12-29T15:17:10;3.50;;;1.83;;
76788;SDS011;65740;52.464;13.446;2022-12-29T15:19:48;2.47;;;1.90;;
76788;SDS011;65740;52.464;13.446;2022-12-29T15:22:14;4.60;;;1.97;;
76788;SDS011;65740;52.464;13.446;2022-12-29T15:24:43;3.80;;;2.23;;
76788;SDS011;65740;52.464;13.446;2022-12-29T15:27:16;4.60;;;1.97;;
76788;SDS011;65740;52.464;13.446;2022-12-29T15:29:45;4.73;;;2.63;;
76788;SDS011;65740;52.464;13.446;2022-12-29T15:34:40;2.93;;;2.07;;
76788;SDS011;65740;52.464;13.446;2022-12-29T15:37:21;3.23;;;2.30;;
76788;SDS011;65740;52.464;13.446;2022-12-29T15:39:58;3.10;;;2.47;;
76788;SDS011;65740;52.464;13.446;2022-12-29T15:45:25;2.63;;;1.90;;
76788;SDS011;65740;52.464;13.446;2022-12-29T15:47:56;4.50;;;2.10;;
76788;SDS011;65740;52.464;13.446;2022-12-29T15:50:27;2.83;;;2.20;;
76788;SDS011;65740;52.464;13.446;2022-12-29T15:52:56;5.87;;;2.93;;
76788;SDS011;65740;52.464;13.446;2022-12-29T15:58:00;5.93;;;2.30;;
76788;SDS011;65740;52.464;13.446;2022-12-29T16:00:29;9.40;;;2.50;;
76788;SDS011;65740;52.464;13.446;2022-12-29T16:02:57;4.20;;;2.67;;
76788;SDS011;65740;52.464;13.446;2022-12-29T16:05:36;4.77;;;2.10;;
76788;SDS011;65740;52.464;13.446;2022-12-29T16:08:15;2.33;;;2.10;;
76788;SDS011;65740;52.464;13.446;2022-12-29T16:10:48;2.40;;;2.10;;
76788;SDS011;65740;52.464;13.446;2022-12-29T16:13:31;2.30;;;2.10;;
76788;SDS011;65740;52.464;13.446;2022-12-29T16:16:09;3.33;;;2.63;;
76788;SDS011;65740;52.464;13.446;2022-12-29T16:18:41;2.77;;;2.13;;
76788;SDS011;65740;52.464;13.446;2022-12-29T16:21:14;4.90;;;2.27;;
76788;SDS011;65740;52.464;13.446;2022-12-29T16:23:44;3.40;;;2.10;;
76788;SDS011;65740;52.464;13.446;2022-12-29T16:26:18;3.13;;;2.33;;
76788;SDS011;65740;52.464;13.446;2022-12-29T16:28:47;6.93;;;2.33;;
76788;SDS011;65740;52.464;13.446;2022-12-29T16:31:35;1.83;;;1.70;;
76788;SDS011;65740;52.464;13.446;2022-12-29T16:36:57;2.17;;;1.97;;
76788;SDS011;65740;52.464;13.446;2022-12-29T16:39:31;2.80;;;1.80;;
76788;SDS011;65740;52.464;13.446;2022-12-29T16:41:59;3.60;;;2.10;;
76788;SDS011;65740;52.464;13.446;2022-12-29T16:44:29;3.83;;;2.10;;
76788;SDS011;65740;52.464;13.446;2022-12-29T16:47:03;3.80;;;2.13;;
76788;SDS011;65740;52.464;13.446;2022-12-29T16:49:35;3.23;;;2.00;;
76788;SDS011;65740;52.464;13.446;2022-12-29T16:52:11;5.03;;;2.10;;
76788;SDS011;65740;52.464;13.446;2022-12-29T16:54:41;2.90;;;2.40;;
76788;SDS011;65740;52.464;13.446;2022-12-29T16:57:11;3.43;;;2.10;;
76788;SDS011;65740;52.464;13.446;2022-12-29T16:59:38;2.37;;;2.00;;
76788;SDS011;65740;52.464;13.446;2022-12-29T17:02:16;5.27;;;2.43;;
76788;SDS011;65740;52.464;13.446;2022-12-29T17:04:45;2.53;;;2.20;;
76788;SDS011;65740;52.464;13.446;2022-12-29T17:07:17;4.73;;;2.00;;
76788;SDS011;65740;52.464;13.446;2022-12-29T17:09:44;2.27;;;1.80;;
76788;SDS011;65740;52.464;13.446;2022-12-29T17:12:11;7.30;;;2.27;;
76788;SDS011;65740;52.464;13.446;2022-12-29T17:14:45;2.47;;;2.17;;
76788;SDS011;65740;52.464;13.446;2022-12-29T17:17:17;2.70;;;2.20;;
76788;SDS011;65740;52.464;13.446;2022-12-29T17:19:45;3.70;;;2.40;;
76788;SDS011;65740;52.464;13.446;2022-12-29T17:22:20;4.63;;;2.07;;
76788;SDS011;65740;52.464;13.446;2022-12-29T17:24:49;5.37;;;2.10;;
76788;SDS011;65740;52.464;13.446;2022-12-29T17:27:20;3.70;;;1.87;;
76788;SDS011;65740;52.464;13.446;2022-12-29T17:30:05;2.80;;;1.87;;
76788;SDS011;65740;52.464;13.446;2022-12-29T17:32:42;2.40;;;2.03;;